createdAt,value
2018-02-15T04:00:42.373Z,23.75
2018-02-15T04:01:41.890Z,25.00
2018-02-15T04:04:25.792Z,27.66
2018-02-15T04:05:24.797Z,27.51
2018-02-15T04:06:24.784Z,25.31
2018-02-15T04:07:24.777Z,26.22
2018-02-15T04:08:27.033Z,25.98
2018-02-15T04:09:25.686Z,26.14
2018-02-15T04:10:25.695Z,27.05
2018-02-15T04:11:26.245Z,25.82
2018-02-15T04:12:25.182Z,27.88
2018-02-15T04:13:27.157Z,26.07
2018-02-15T04:14:28.256Z,26.70
2018-02-15T04:15:25.681Z,27.70
2018-02-15T04:16:25.080Z,27.24
2018-02-15T04:17:25.071Z,29.36
2018-02-15T04:18:25.307Z,27.38
2018-02-15T04:19:25.084Z,30.73
2018-02-15T04:20:25.112Z,29.75
2018-02-15T04:21:25.543Z,30.59
2018-02-15T04:22:24.611Z,28.62
2018-02-15T04:23:24.629Z,27.99
2018-02-15T04:24:24.572Z,30.59
2018-02-15T04:25:24.568Z,31.70
2018-02-15T04:26:24.559Z,28.29
2018-02-15T04:27:24.558Z,31.14
2018-02-15T04:28:24.567Z,33.68
2018-02-15T04:29:24.543Z,35.78
2018-02-15T04:30:24.513Z,35.24
2018-02-15T04:31:24.504Z,35.15
2018-02-15T04:32:24.509Z,34.14
2018-02-15T04:33:24.487Z,33.20
2018-02-15T04:34:24.473Z,33.24
2018-02-15T04:35:24.457Z,33.64
2018-02-15T04:36:24.461Z,35.24
2018-02-15T04:37:24.444Z,32.95
2018-02-15T04:38:24.427Z,36.12
2018-02-15T04:39:24.420Z,37.43
2018-02-15T04:40:24.406Z,33.89
2018-02-15T04:41:24.392Z,35.56
2018-02-15T04:42:24.376Z,35.38
2018-02-15T04:43:24.391Z,33.03
2018-02-15T04:44:24.376Z,36.29
2018-02-15T04:45:24.377Z,32.70
2018-02-15T04:46:24.350Z,33.68
2018-02-15T04:47:24.330Z,38.72
2018-02-15T04:48:24.323Z,35.48
2018-02-15T04:49:24.307Z,36.97
2018-02-15T04:50:24.312Z,38.94
2018-02-15T04:51:24.286Z,40.93
2018-02-15T04:52:24.272Z,37.77
2018-02-15T04:53:24.286Z,39.86
2018-02-15T04:54:24.252Z,40.52
2018-02-15T04:55:24.262Z,40.99
2018-02-15T04:56:24.232Z,39.80
2018-02-15T04:57:24.303Z,43.85
2018-02-15T04:58:24.235Z,44.37
2018-02-15T04:59:24.222Z,44.28
2018-02-15T05:00:24.190Z,45.76
2018-02-15T05:01:24.176Z,48.38
2018-02-15T05:02:24.192Z,46.92
2018-02-15T05:03:24.169Z,45.65
2018-02-15T05:04:24.185Z,46.33
2018-02-15T05:05:24.137Z,44.01
2018-02-15T05:06:24.146Z,46.80
2018-02-15T05:07:25.304Z,50.68
2018-02-15T05:08:24.093Z,49.88
2018-02-15T05:09:24.089Z,49.21
2018-02-15T05:10:24.106Z,52.39
2018-02-15T05:11:24.166Z,49.60
2018-02-15T05:12:24.104Z,53.70
2018-02-15T05:13:24.069Z,54.29
2018-02-15T05:14:24.037Z,55.06
2018-02-15T05:15:24.038Z,55.53
2018-02-15T05:16:24.023Z,53.24
2018-02-15T05:17:24.019Z,55.27
2018-02-15T05:18:23.993Z,60.88
2018-02-15T05:19:23.981Z,63.75
2018-02-15T05:20:23.975Z,59.02
2018-02-15T05:21:23.961Z,60.02
2018-02-15T05:22:23.949Z,62.85
2018-02-15T05:23:23.946Z,63.76
2018-02-15T05:24:23.926Z,62.62
2018-02-15T05:25:23.918Z,60.50
2018-02-15T05:26:23.910Z,64.46
2018-02-15T05:27:23.881Z,62.91
2018-02-15T05:28:23.883Z,63.11
2018-02-15T05:29:23.866Z,60.20
2018-02-15T05:30:23.884Z,57.11
2018-02-15T05:31:23.847Z,62.44
2018-02-15T05:32:23.835Z,63.45
2018-02-15T05:33:23.822Z,60.28
2018-02-15T05:34:23.813Z,60.86
2018-02-15T05:35:23.800Z,64.90
2018-02-15T05:36:23.804Z,62.91
2018-02-15T05:37:23.772Z,63.47
2018-02-15T05:38:23.776Z,62.20
2018-02-15T05:39:23.747Z,61.10
2018-02-15T05:40:23.744Z,64.05
2018-02-15T05:41:23.734Z,64.69
2018-02-15T05:42:23.712Z,62.91
2018-02-15T05:43:23.709Z,63.92
2018-02-15T05:44:23.698Z,64.12
2018-02-15T05:45:23.684Z,68.72
2018-02-15T05:46:23.666Z,61.86
2018-02-15T05:47:23.678Z,66.08
2018-02-15T05:48:23.658Z,64.53
2018-02-15T05:49:23.641Z,66.40
2018-02-15T05:50:23.638Z,60.30
2018-02-15T05:51:23.617Z,61.90
2018-02-15T05:52:23.631Z,58.83
2018-02-15T05:53:23.589Z,59.50
2018-02-15T05:54:23.596Z,57.50
2018-02-15T05:55:23.610Z,54.76
2018-02-15T05:56:23.568Z,61.00
2018-02-15T05:57:23.562Z,62.36
2018-02-15T05:58:23.536Z,61.26
2018-02-15T05:59:23.538Z,60.82
2018-02-15T06:00:23.515Z,60.34
2018-02-15T06:01:23.513Z,61.70
2018-02-15T06:02:23.496Z,62.79
2018-02-15T06:03:23.480Z,65.99
2018-02-15T06:04:23.473Z,60.90
2018-02-15T06:05:23.454Z,60.57
2018-02-15T06:06:23.483Z,55.29
2018-02-15T06:07:23.450Z,54.26
2018-02-15T06:08:23.438Z,56.62
2018-02-15T06:09:23.424Z,59.10
2018-02-15T06:10:23.417Z,57.47
2018-02-15T06:11:23.407Z,55.07
2018-02-15T06:12:23.391Z,54.21
2018-02-15T06:13:23.379Z,53.22
2018-02-15T06:14:23.374Z,51.65
2018-02-15T06:15:23.358Z,51.94
2018-02-15T06:16:23.365Z,49.17
2018-02-15T06:17:23.341Z,49.26
2018-02-15T06:18:23.340Z,51.34
2018-02-15T06:19:23.314Z,54.45
2018-02-15T06:20:23.313Z,51.01
2018-02-15T06:21:23.286Z,53.38
2018-02-15T06:22:23.285Z,51.99
2018-02-15T06:23:23.262Z,47.43
2018-02-15T06:24:23.262Z,46.68
2018-02-15T06:25:23.247Z,49.14
2018-02-15T06:26:23.231Z,47.18
2018-02-15T06:27:23.219Z,45.90
2018-02-15T06:28:23.209Z,44.91
2018-02-15T06:29:23.204Z,45.03
2018-02-15T06:30:23.190Z,47.60
2018-02-15T06:31:23.177Z,46.95
2018-02-15T06:32:23.167Z,43.68
2018-02-15T06:33:23.153Z,46.00
2018-02-15T06:34:23.144Z,46.73
2018-02-15T06:35:23.148Z,43.64
2018-02-15T06:36:23.121Z,44.76
2018-02-15T06:37:23.110Z,54.14
2018-02-15T06:38:23.099Z,49.96
2018-02-15T06:39:23.088Z,43.07
2018-02-15T06:40:23.068Z,41.55
2018-02-15T06:41:23.072Z,40.56
2018-02-15T06:42:23.049Z,41.34
2018-02-15T06:43:23.049Z,39.03
2018-02-15T06:44:23.036Z,41.22
2018-02-15T06:45:23.024Z,41.10
2018-02-15T06:46:23.011Z,37.75
2018-02-15T06:47:23.007Z,38.76
2018-02-15T06:48:23.016Z,38.34
2018-02-15T06:49:22.978Z,39.32
2018-02-15T06:50:22.976Z,39.30
2018-02-15T06:51:22.969Z,38.88
2018-02-15T06:52:22.945Z,40.70
2018-02-15T06:53:22.933Z,39.60
2018-02-15T06:54:22.922Z,42.89
2018-02-15T06:55:22.913Z,40.18
2018-02-15T06:56:22.899Z,39.11
2018-02-15T06:57:22.886Z,40.45
2018-02-15T06:58:22.894Z,38.85
2018-02-15T06:59:22.858Z,39.88
2018-02-15T07:00:22.859Z,37.83
2018-02-15T07:01:22.841Z,39.07
2018-02-15T07:02:22.848Z,38.77
2018-02-15T07:03:22.841Z,36.49
2018-02-15T07:04:22.811Z,38.44
2018-02-15T07:05:22.799Z,39.39
2018-02-15T07:06:22.787Z,37.58
2018-02-15T07:07:22.775Z,40.17
2018-02-15T07:08:22.789Z,36.40
2018-02-15T07:09:22.756Z,37.30
2018-02-15T07:10:22.743Z,41.13
2018-02-15T07:11:22.736Z,39.16
2018-02-15T07:12:22.725Z,38.99
2018-02-15T07:13:22.715Z,38.00
2018-02-15T07:14:22.704Z,40.34
2018-02-15T07:15:22.686Z,41.37
2018-02-15T07:16:22.681Z,41.85
2018-02-15T07:17:22.665Z,41.33
2018-02-15T07:18:22.652Z,40.70
2018-02-15T07:19:22.643Z,40.52
2018-02-15T07:20:22.636Z,40.50
2018-02-15T07:21:22.619Z,38.96
2018-02-15T07:22:22.610Z,37.54
2018-02-15T07:23:22.598Z,38.80
2018-02-15T07:24:22.591Z,39.30
2018-02-15T07:25:22.583Z,39.52
2018-02-15T07:26:22.567Z,37.37
2018-02-15T07:27:22.557Z,38.54
2018-02-15T07:28:22.541Z,38.69
2018-02-15T07:29:22.530Z,39.16
2018-02-15T07:30:22.526Z,40.26
2018-02-15T07:31:22.507Z,40.82
2018-02-15T07:32:22.500Z,41.98
2018-02-15T07:33:22.489Z,40.59
2018-02-15T07:34:22.479Z,37.91
2018-02-15T07:35:22.467Z,38.70
2018-02-15T07:36:22.487Z,41.18
2018-02-15T07:37:22.452Z,40.65
2018-02-15T07:38:22.435Z,38.71
2018-02-15T07:39:22.424Z,40.88
2018-02-15T07:40:22.430Z,39.74
2018-02-15T07:41:22.406Z,43.02
2018-02-15T07:42:22.391Z,42.41
2018-02-15T07:43:22.379Z,38.23
2018-02-15T07:44:22.389Z,36.60
2018-02-15T07:45:22.357Z,38.72
2018-02-15T07:46:22.346Z,39.40
2018-02-15T07:47:22.333Z,38.36
2018-02-15T07:48:22.317Z,36.84
2018-02-15T07:49:22.309Z,37.57
2018-02-15T07:50:22.298Z,38.14
2018-02-15T07:51:22.291Z,38.31
2018-02-15T07:52:22.279Z,40.75
2018-02-15T07:53:22.261Z,40.32
2018-02-15T07:54:22.257Z,45.81
2018-02-15T07:55:22.254Z,45.86
2018-02-15T07:56:22.237Z,43.42
2018-02-15T07:57:22.227Z,43.08
2018-02-15T07:58:22.212Z,39.03
2018-02-15T07:59:22.192Z,40.65
2018-02-15T08:00:22.201Z,40.46
2018-02-15T08:01:22.176Z,40.14
2018-02-15T08:02:22.162Z,38.48
2018-02-15T08:03:22.164Z,41.41
2018-02-15T08:04:22.145Z,41.79
2018-02-15T08:05:22.143Z,43.68
2018-02-15T08:06:22.125Z,41.81
2018-02-15T08:07:22.110Z,41.38
2018-02-15T08:08:22.100Z,40.87
2018-02-15T08:09:22.091Z,41.17
2018-02-15T08:10:22.080Z,42.56
2018-02-15T08:11:22.068Z,40.11
2018-02-15T08:12:22.056Z,42.32
2018-02-15T08:13:22.047Z,40.67
2018-02-15T08:14:22.055Z,40.70
2018-02-15T08:15:22.023Z,41.70
2018-02-15T08:16:22.020Z,40.86
2018-02-15T08:17:22.002Z,40.19
2018-02-15T08:18:21.996Z,39.90
2018-02-15T08:19:21.985Z,38.08
2018-02-15T08:20:21.973Z,40.50
2018-02-15T08:21:21.957Z,38.07
2018-02-15T08:22:21.954Z,39.35
2018-02-15T08:23:21.942Z,40.40
2018-02-15T08:24:21.921Z,36.71
2018-02-15T08:25:21.917Z,37.63
2018-02-15T08:26:21.904Z,37.18
2018-02-15T08:27:21.892Z,36.70
2018-02-15T08:28:21.880Z,36.82
2018-02-15T08:29:21.870Z,36.08
2018-02-15T08:30:21.860Z,39.80
2018-02-15T08:31:21.851Z,40.59
2018-02-15T08:32:21.848Z,39.04
2018-02-15T08:33:21.823Z,36.24
2018-02-15T08:34:21.818Z,39.08
2018-02-15T08:35:21.805Z,38.43
2018-02-15T08:36:21.795Z,40.20
2018-02-15T08:37:21.784Z,38.66
2018-02-15T08:38:21.776Z,37.55
2018-02-15T08:39:21.765Z,36.09
2018-02-15T08:40:21.751Z,38.18
2018-02-15T08:41:21.745Z,36.32
2018-02-15T08:42:21.744Z,41.28
2018-02-15T08:43:21.720Z,37.01
2018-02-15T08:44:21.756Z,36.84
2018-02-15T08:45:21.700Z,38.10
2018-02-15T08:46:21.688Z,37.41
2018-02-15T08:47:21.678Z,36.53
2018-02-15T08:48:21.669Z,37.42
2018-02-15T08:49:21.658Z,38.14
2018-02-15T08:50:21.647Z,37.20
2018-02-15T08:51:21.638Z,36.55
2018-02-15T08:52:21.642Z,36.11
2018-02-15T08:53:21.616Z,35.78
2018-02-15T08:54:21.605Z,38.94
2018-02-15T08:55:21.593Z,38.71
2018-02-15T08:56:21.587Z,38.26
2018-02-15T08:57:21.577Z,37.48
2018-02-15T08:58:21.576Z,36.63
2018-02-15T08:59:21.551Z,37.84
2018-02-15T09:00:21.537Z,36.84
2018-02-15T09:01:21.546Z,36.19
2018-02-15T09:02:21.518Z,36.25
2018-02-15T09:03:21.512Z,37.55
2018-02-15T09:04:21.500Z,40.76
2018-02-15T09:05:21.490Z,36.52
2018-02-15T09:06:21.476Z,38.10
2018-02-15T09:07:21.461Z,39.22
2018-02-15T09:08:21.456Z,36.70
2018-02-15T09:09:21.497Z,35.06
2018-02-15T09:10:21.442Z,37.50
2018-02-15T09:11:21.425Z,38.05
2018-02-15T09:12:21.415Z,36.08
2018-02-15T09:13:21.405Z,35.76
2018-02-15T09:14:21.391Z,35.64
2018-02-15T09:15:21.381Z,34.82
2018-02-15T09:16:21.389Z,35.19
2018-02-15T09:17:21.385Z,37.38
2018-02-15T09:18:21.357Z,36.71
2018-02-15T09:19:21.351Z,34.63
2018-02-15T09:20:21.325Z,35.33
2018-02-15T09:21:21.320Z,33.41
2018-02-15T09:22:21.315Z,35.60
2018-02-15T09:23:21.298Z,34.75
2018-02-15T09:24:21.290Z,33.10
2018-02-15T09:25:21.280Z,36.43
2018-02-15T09:26:21.266Z,36.46
2018-02-15T09:27:21.262Z,36.02
2018-02-15T09:28:21.242Z,35.60
2018-02-15T09:29:21.235Z,35.30
2018-02-15T09:30:21.227Z,35.04
2018-02-15T09:31:21.217Z,35.00
2018-02-15T09:32:21.207Z,33.37
2018-02-15T09:33:21.198Z,34.48
2018-02-15T09:34:21.184Z,35.06
2018-02-15T09:35:21.178Z,34.04
2018-02-15T09:36:21.162Z,35.24
2018-02-15T09:37:21.152Z,33.26
2018-02-15T09:38:21.145Z,33.01
2018-02-15T09:39:21.133Z,33.72
2018-02-15T09:40:21.127Z,33.15
2018-02-15T09:41:21.115Z,32.92
2018-02-15T09:42:21.104Z,33.26
2018-02-15T09:43:21.107Z,35.46
2018-02-15T09:44:21.086Z,34.40
2018-02-15T09:45:21.075Z,36.07
2018-02-15T09:46:21.072Z,35.09
2018-02-15T09:47:21.052Z,34.21
2018-02-15T09:48:21.042Z,34.77
2018-02-15T09:49:21.042Z,35.53
2018-02-15T09:50:21.028Z,35.07
2018-02-15T09:51:21.028Z,35.72
2018-02-15T09:52:21.009Z,34.69
2018-02-15T09:53:21.000Z,35.09
2018-02-15T09:54:20.991Z,34.92
2018-02-15T09:55:20.976Z,32.24
2018-02-15T09:56:20.968Z,36.17
2018-02-15T09:57:20.958Z,33.83
2018-02-15T09:58:20.947Z,33.14
2018-02-15T09:59:20.941Z,34.91
2018-02-15T10:00:20.931Z,34.81
2018-02-15T10:01:20.919Z,38.55
2018-02-15T10:02:20.911Z,34.74
2018-02-15T10:03:20.900Z,33.64
2018-02-15T10:04:20.903Z,34.90
2018-02-15T10:05:20.885Z,32.13
2018-02-15T10:06:20.879Z,33.93
2018-02-15T10:07:20.856Z,35.81
2018-02-15T10:08:20.854Z,33.91
2018-02-15T10:09:20.849Z,34.31
2018-02-15T10:10:20.826Z,37.24
2018-02-15T10:11:20.823Z,34.17
2018-02-15T10:12:20.814Z,34.47
2018-02-15T10:13:20.818Z,33.17
2018-02-15T10:14:20.796Z,35.47
2018-02-15T10:15:20.790Z,34.38
2018-02-15T10:16:20.775Z,33.18
2018-02-15T10:17:20.767Z,32.95
2018-02-15T10:18:20.755Z,34.12
2018-02-15T10:19:20.748Z,33.59
2018-02-15T10:20:20.749Z,35.36
2018-02-15T10:21:20.729Z,34.80
2018-02-15T10:22:20.718Z,33.74
2018-02-15T10:23:20.702Z,35.12
2018-02-15T10:24:20.698Z,32.68
2018-02-15T10:25:20.686Z,31.86
2018-02-15T10:26:20.683Z,33.89
2018-02-15T10:27:20.672Z,34.06
2018-02-15T10:28:20.659Z,32.11
2018-02-15T10:29:20.681Z,32.28
2018-02-15T10:30:20.645Z,32.35
2018-02-15T10:31:20.630Z,34.34
2018-02-15T10:32:20.625Z,33.46
2018-02-15T10:33:20.622Z,34.06
2018-02-15T10:34:20.604Z,32.25
2018-02-15T10:35:20.600Z,31.67
2018-02-15T10:36:20.594Z,33.81
2018-02-15T10:37:20.570Z,37.35
2018-02-15T10:38:20.563Z,37.60
2018-02-15T10:39:20.556Z,32.64
2018-02-15T10:40:20.542Z,33.84
2018-02-15T10:41:20.538Z,33.61
2018-02-15T10:42:20.525Z,33.95
2018-02-15T10:43:20.529Z,31.83
2018-02-15T10:44:20.513Z,33.49
2018-02-15T10:45:20.499Z,32.60
2018-02-15T10:46:20.488Z,31.52
2018-02-15T10:47:20.493Z,32.44
2018-02-15T10:48:20.470Z,32.38
2018-02-15T10:49:20.459Z,33.53
2018-02-15T10:50:20.448Z,30.56
2018-02-15T10:51:20.435Z,29.39
2018-02-15T10:52:20.432Z,33.33
2018-02-15T10:53:20.418Z,32.60
2018-02-15T10:54:20.405Z,30.98
2018-02-15T10:55:20.399Z,30.70
2018-02-15T10:56:20.390Z,30.02
2018-02-15T10:57:20.388Z,30.13
2018-02-15T10:58:20.369Z,32.62
2018-02-15T10:59:20.361Z,33.11
2018-02-15T11:00:20.351Z,31.80
2018-02-15T11:01:20.341Z,32.46
2018-02-15T11:02:20.330Z,33.13
2018-02-15T11:03:20.324Z,28.39
2018-02-15T11:04:20.309Z,30.55
2018-02-15T11:05:20.302Z,30.52
2018-02-15T11:06:20.288Z,32.20
2018-02-15T11:07:20.279Z,29.88
2018-02-15T11:08:20.287Z,29.70
2018-02-15T11:09:20.256Z,29.68
2018-02-15T11:10:20.249Z,29.98
2018-02-15T11:11:20.244Z,29.43
2018-02-15T11:12:20.235Z,30.52
2018-02-15T11:13:20.229Z,28.78
2018-02-15T11:14:20.212Z,31.02
2018-02-15T11:15:20.209Z,33.00
2018-02-15T11:16:20.187Z,31.66
2018-02-15T11:17:20.183Z,30.06
2018-02-15T11:18:20.172Z,32.35
2018-02-15T11:19:20.164Z,31.39
2018-02-15T11:20:20.152Z,29.04
2018-02-15T11:21:20.143Z,29.35
2018-02-15T11:22:20.133Z,30.07
2018-02-15T11:23:20.125Z,30.45
2018-02-15T11:24:20.117Z,28.37
2018-02-15T11:25:20.108Z,27.59
2018-02-15T11:26:20.096Z,32.59
2018-02-15T11:27:20.093Z,31.24
2018-02-15T11:28:20.088Z,28.73
2018-02-15T11:29:20.068Z,29.43
2018-02-15T11:30:20.066Z,28.72
2018-02-15T11:31:20.041Z,27.92
2018-02-15T11:32:20.038Z,28.91
2018-02-15T11:33:20.028Z,30.32
2018-02-15T11:34:20.022Z,30.73
2018-02-15T11:35:20.009Z,32.41
2018-02-15T11:36:20.001Z,31.10
2018-02-15T11:37:19.991Z,29.04
2018-02-15T11:38:19.977Z,29.70
2018-02-15T11:39:19.999Z,29.30
2018-02-15T11:40:19.983Z,29.48
2018-02-15T11:41:19.961Z,30.05
2018-02-15T11:42:19.957Z,29.13
2018-02-15T11:43:19.933Z,28.64
2018-02-15T11:44:19.934Z,32.33
2018-02-15T11:45:19.911Z,30.35
2018-02-15T11:46:19.909Z,30.00
2018-02-15T11:47:19.897Z,29.31
2018-02-15T11:48:19.886Z,27.98
2018-02-15T11:49:19.880Z,26.84
2018-02-15T11:50:19.864Z,27.16
2018-02-15T11:51:19.865Z,29.72
2018-02-15T11:52:19.848Z,28.68
2018-02-15T11:53:19.835Z,27.27
2018-02-15T11:54:19.829Z,28.33
2018-02-15T11:55:19.819Z,24.50
2018-02-15T11:56:19.810Z,30.95
2018-02-15T11:57:19.796Z,28.30
2018-02-15T11:58:19.794Z,26.63
2018-02-15T11:59:19.786Z,27.88
2018-02-15T12:00:19.768Z,27.60
2018-02-15T12:01:19.772Z,31.74
2018-02-15T12:02:19.761Z,28.71
2018-02-15T12:03:19.747Z,29.78
2018-02-15T12:04:19.725Z,27.63
2018-02-15T12:05:19.724Z,29.00
2018-02-15T12:06:19.710Z,25.94
2018-02-15T12:07:19.695Z,26.78
2018-02-15T12:08:19.694Z,27.52
2018-02-15T12:09:19.691Z,28.94
2018-02-15T12:10:19.668Z,27.45
2018-02-15T12:11:19.660Z,26.17
2018-02-15T12:12:19.693Z,27.57
2018-02-15T12:13:19.690Z,25.94
2018-02-15T12:14:19.638Z,25.75
2018-02-15T12:15:19.620Z,24.94
2018-02-15T12:16:19.620Z,27.71
2018-02-15T12:17:19.602Z,25.36
2018-02-15T12:18:19.614Z,25.44
2018-02-15T12:19:19.609Z,25.32
2018-02-15T12:20:19.584Z,26.23
2018-02-15T12:21:19.573Z,24.66
2018-02-15T12:22:19.564Z,23.93
2018-02-15T12:23:19.568Z,25.32
2018-02-15T12:24:19.557Z,25.16
2018-02-15T12:25:19.556Z,24.04
2018-02-15T12:26:19.529Z,24.06
2018-02-15T12:27:19.520Z,25.25
2018-02-15T12:28:19.514Z,26.12
2018-02-15T12:29:19.498Z,26.40
2018-02-15T12:30:19.492Z,24.55
2018-02-15T12:31:19.479Z,25.28
2018-02-15T12:32:19.482Z,24.90
2018-02-15T12:33:19.464Z,26.57
2018-02-15T12:34:19.455Z,24.28
2018-02-15T12:35:19.454Z,27.03
2018-02-15T12:36:19.447Z,23.68
2018-02-15T12:37:19.430Z,24.46
2018-02-15T12:38:19.453Z,24.10
2018-02-15T12:39:19.431Z,24.62
2018-02-15T12:40:19.405Z,26.54
2018-02-15T12:41:19.412Z,24.17
2018-02-15T12:42:19.409Z,24.42
2018-02-15T12:43:19.379Z,23.53
2018-02-15T12:44:19.384Z,23.78
2018-02-15T12:45:19.355Z,24.74
2018-02-15T12:46:19.371Z,23.78
2018-02-15T12:47:19.330Z,26.80
2018-02-15T12:48:19.352Z,25.47
2018-02-15T12:49:19.335Z,24.45
2018-02-15T12:50:19.318Z,24.64
2018-02-15T12:51:19.310Z,24.43
2018-02-15T12:52:19.296Z,25.55
2018-02-15T12:53:19.288Z,25.72
2018-02-15T12:54:19.281Z,26.35
2018-02-15T12:55:19.271Z,23.50
2018-02-15T12:56:19.279Z,23.85
2018-02-15T12:57:19.248Z,25.57
2018-02-15T12:58:19.247Z,26.80
2018-02-15T12:59:19.234Z,23.65
2018-02-15T13:00:19.224Z,24.02
2018-02-15T13:01:19.220Z,23.23
2018-02-15T13:02:19.220Z,24.98
2018-02-15T13:03:19.199Z,23.26
2018-02-15T13:04:19.198Z,24.29
2018-02-15T13:05:19.184Z,24.00
2018-02-15T13:06:19.186Z,25.96
2018-02-15T13:07:19.173Z,23.79
2018-02-15T13:08:19.161Z,23.22
2018-02-15T13:09:19.153Z,24.38
2018-02-15T13:10:19.170Z,23.32
2018-02-15T13:11:19.135Z,23.54
2018-02-15T13:12:19.126Z,24.12
2018-02-15T13:13:19.110Z,24.60
2018-02-15T13:14:19.157Z,22.77
2018-02-15T13:15:19.099Z,20.94
2018-02-15T13:16:19.097Z,21.46
2018-02-15T13:17:19.083Z,25.09
2018-02-15T13:18:19.074Z,26.10
2018-02-15T13:19:19.066Z,24.78
2018-02-15T13:20:19.057Z,23.31
2018-02-15T13:21:19.042Z,24.72
2018-02-15T13:22:19.064Z,26.65
2018-02-15T13:23:19.034Z,23.62
2018-02-15T13:24:19.025Z,21.19
2018-02-15T13:25:19.013Z,22.04
2018-02-15T13:26:19.000Z,23.12
2018-02-15T13:27:18.996Z,22.80
2018-02-15T13:28:18.987Z,22.44
2018-02-15T13:29:18.981Z,29.02
2018-02-15T13:30:18.969Z,25.78
2018-02-15T13:31:18.969Z,24.55
2018-02-15T13:32:18.958Z,24.67
2018-02-15T13:33:18.959Z,23.65
2018-02-15T13:34:18.933Z,23.35
2018-02-15T13:35:18.923Z,23.25
2018-02-15T13:36:18.932Z,22.75
2018-02-15T13:37:18.933Z,22.43
2018-02-15T13:38:18.894Z,22.60
2018-02-15T13:39:18.891Z,23.06
2018-02-15T13:40:18.892Z,25.75
2018-02-15T13:41:18.877Z,27.83
2018-02-15T13:42:18.868Z,31.98
2018-02-15T13:43:18.854Z,26.69
2018-02-15T13:44:18.878Z,26.86
2018-02-15T13:45:18.841Z,30.81
2018-02-15T13:46:18.837Z,24.20
2018-02-15T13:47:18.825Z,31.64
2018-02-15T13:48:18.839Z,26.89
2018-02-15T13:49:18.810Z,28.30
2018-02-15T13:50:18.806Z,30.64
2018-02-15T13:51:18.783Z,31.48
2018-02-15T13:52:18.780Z,27.82
2018-02-15T13:53:18.774Z,26.38
2018-02-15T13:53:30.776Z,1.13
2018-02-15T13:55:18.755Z,30.50
2018-02-15T13:56:18.792Z,28.10
2018-02-15T13:57:18.742Z,24.32
2018-02-15T13:58:18.751Z,25.98
2018-02-15T13:59:18.721Z,27.09
2018-02-15T14:00:18.714Z,22.42
2018-02-15T14:01:18.706Z,26.72
2018-02-15T14:02:18.707Z,32.82
2018-02-15T14:03:18.686Z,27.48
2018-02-15T14:04:18.678Z,29.10
2018-02-15T14:05:18.669Z,27.70
2018-02-15T14:06:18.654Z,28.03
2018-02-15T14:07:18.655Z,28.10
2018-02-15T14:08:18.666Z,30.96
2018-02-15T14:09:18.641Z,36.30
2018-02-15T14:10:18.621Z,34.30
2018-02-15T14:11:18.624Z,26.92
2018-02-15T14:12:18.638Z,24.36
2018-02-15T14:13:18.598Z,25.73
2018-02-15T14:14:18.590Z,42.89
2018-02-15T14:15:18.587Z,37.64
2018-02-15T14:16:18.579Z,27.72
2018-02-15T14:17:18.567Z,24.25
2018-02-15T14:18:18.558Z,26.04
2018-02-15T14:19:18.552Z,26.44
2018-02-15T14:20:18.548Z,22.81
2018-02-15T14:21:18.524Z,23.88
2018-02-15T14:22:18.525Z,25.91
2018-02-15T14:23:18.535Z,30.74
2018-02-15T14:24:18.514Z,34.77
2018-02-15T14:25:18.521Z,30.65
2018-02-15T14:26:18.490Z,29.74
2018-02-15T14:27:18.485Z,28.81
2018-02-15T14:28:18.467Z,29.45
2018-02-15T14:29:18.462Z,28.76
2018-02-15T14:30:18.452Z,28.08
2018-02-15T14:31:18.444Z,25.09
2018-02-15T14:32:18.441Z,26.30
2018-02-15T14:33:18.424Z,27.37
2018-02-15T14:34:18.415Z,26.54
2018-02-15T14:35:18.404Z,23.67
2018-02-15T14:36:18.400Z,26.10
2018-02-15T14:37:18.400Z,27.92
2018-02-15T14:38:18.397Z,25.59
2018-02-15T14:39:18.375Z,26.61
2018-02-15T14:40:18.368Z,25.22
2018-02-15T14:41:18.354Z,26.25
2018-02-15T14:42:18.352Z,25.51
2018-02-15T14:43:18.347Z,24.41
2018-02-15T14:44:18.344Z,25.39
2018-02-15T14:45:18.346Z,24.17
2018-02-15T14:46:18.306Z,24.70
2018-02-15T14:47:18.320Z,23.27
2018-02-15T14:48:18.300Z,24.43
2018-02-15T14:49:18.291Z,24.54
2018-02-15T14:50:18.286Z,23.85
2018-02-15T14:51:18.300Z,23.56
2018-02-15T14:52:18.263Z,24.90
2018-02-15T14:53:18.252Z,23.82
2018-02-15T14:54:18.242Z,24.64
2018-02-15T14:55:18.234Z,24.03
2018-02-15T14:56:18.248Z,25.79
2018-02-15T14:57:18.224Z,26.93
2018-02-15T14:58:18.220Z,22.90
2018-02-15T14:59:18.198Z,23.57
2018-02-15T15:00:18.185Z,24.98
2018-02-15T15:01:18.185Z,25.43
2018-02-15T15:02:18.178Z,25.99
2018-02-15T15:03:18.176Z,27.06
2018-02-15T15:04:18.178Z,27.01
2018-02-15T15:05:18.181Z,25.11
2018-02-15T15:06:18.152Z,25.03
2018-02-15T15:07:18.136Z,23.48
2018-02-15T15:08:18.128Z,24.25
2018-02-15T15:09:18.116Z,23.02
2018-02-15T15:10:18.121Z,21.32
2018-02-15T15:11:18.106Z,23.08
2018-02-15T15:12:18.093Z,20.82
2018-02-15T15:13:18.094Z,23.92
2018-02-15T15:14:18.070Z,23.14
2018-02-15T15:15:18.061Z,23.56
2018-02-15T15:16:18.053Z,22.96
2018-02-15T15:17:18.046Z,23.70
2018-02-15T15:18:18.062Z,22.05
2018-02-15T15:19:18.032Z,20.79
2018-02-15T15:20:18.020Z,23.17
2018-02-15T15:21:18.015Z,21.41
2018-02-15T15:22:18.016Z,23.41
2018-02-15T15:23:18.016Z,23.80
2018-02-15T15:24:17.991Z,26.64
2018-02-15T15:25:17.986Z,23.38
2018-02-15T15:26:17.974Z,23.45
2018-02-15T15:27:17.964Z,20.55
2018-02-15T15:28:17.981Z,22.74
2018-02-15T15:29:17.945Z,22.51
2018-02-15T15:30:17.957Z,24.87
2018-02-15T15:31:17.932Z,23.08
2018-02-15T15:32:17.936Z,22.04
2018-02-15T15:33:17.913Z,23.78
2018-02-15T15:34:17.903Z,21.86
2018-02-15T15:35:17.897Z,23.18
2018-02-15T15:36:17.892Z,23.51
2018-02-15T15:37:17.877Z,22.89
2018-02-15T15:38:17.893Z,23.80
2018-02-15T15:39:17.862Z,24.84
2018-02-15T15:40:17.853Z,24.01
2018-02-15T15:41:17.867Z,24.54
2018-02-15T15:42:17.837Z,25.82
2018-02-15T15:43:17.836Z,26.34
2018-02-15T15:44:17.816Z,26.94
2018-02-15T15:45:17.822Z,26.04
2018-02-15T15:46:17.816Z,26.52
2018-02-15T15:47:17.798Z,26.28
2018-02-15T15:48:17.787Z,26.77
2018-02-15T15:49:17.780Z,27.55
2018-02-15T15:50:17.768Z,27.68
2018-02-15T15:51:17.778Z,28.37
2018-02-15T15:52:17.769Z,27.07
2018-02-15T15:53:17.746Z,28.20
2018-02-15T15:54:17.739Z,27.94
2018-02-15T15:55:17.727Z,29.43
2018-02-15T15:56:17.721Z,28.26
2018-02-15T15:57:17.707Z,29.54
2018-02-15T15:58:17.706Z,27.70
2018-02-15T15:59:17.688Z,26.69
2018-02-15T16:00:17.708Z,25.07
2018-02-15T16:01:17.670Z,27.61
2018-02-15T16:02:17.664Z,29.24
2018-02-15T16:03:17.664Z,25.14
2018-02-15T16:04:17.658Z,27.38
2018-02-15T16:05:17.647Z,26.21
2018-02-15T16:06:17.634Z,24.89
2018-02-15T16:07:17.631Z,23.32
2018-02-15T16:08:17.640Z,24.40
2018-02-15T16:09:17.606Z,22.23
2018-02-15T16:10:17.602Z,22.29
2018-02-15T16:11:17.591Z,23.47
2018-02-15T16:12:17.583Z,22.59
2018-02-15T16:13:17.577Z,21.78
2018-02-15T16:14:17.569Z,20.73
2018-02-15T16:15:17.556Z,19.83
2018-02-15T16:16:17.546Z,19.98
2018-02-15T16:17:17.553Z,19.70
2018-02-15T16:18:17.537Z,20.84
2018-02-15T16:19:17.538Z,18.96
2018-02-15T16:20:17.521Z,20.09
2018-02-15T16:21:17.511Z,18.53
2018-02-15T16:22:17.502Z,19.08
2018-02-15T16:23:17.492Z,18.68
2018-02-15T16:24:17.511Z,19.17
2018-02-15T16:25:17.473Z,17.33
2018-02-15T16:26:17.463Z,16.71
2018-02-15T16:27:17.479Z,19.74
2018-02-15T16:28:17.458Z,18.49
2018-02-15T16:29:17.461Z,18.46
2018-02-15T16:30:17.425Z,15.40
2018-02-15T16:31:17.423Z,14.30
2018-02-15T16:32:17.416Z,14.88
2018-02-15T16:33:17.405Z,17.70
2018-02-15T16:34:17.398Z,17.08
2018-02-15T16:35:17.403Z,15.26
2018-02-15T16:36:17.386Z,15.27
2018-02-15T16:37:17.372Z,14.59
2018-02-15T16:38:17.357Z,15.34
2018-02-15T16:39:17.354Z,17.24
2018-02-15T16:40:17.344Z,18.81
2018-02-15T16:41:17.332Z,19.48
2018-02-15T16:42:17.346Z,21.52
2018-02-15T16:43:17.320Z,20.73
2018-02-15T16:44:17.322Z,22.90
2018-02-15T16:45:17.314Z,22.94
2018-02-15T16:46:17.324Z,20.92
2018-02-15T16:47:17.305Z,20.57
2018-02-15T16:48:17.286Z,21.01
2018-02-15T16:49:17.281Z,21.45
2018-02-15T16:50:17.267Z,22.91
2018-02-15T16:51:17.258Z,21.91
2018-02-15T16:52:17.241Z,21.04
2018-02-15T16:53:17.247Z,22.91
2018-02-15T16:54:17.232Z,20.93